createdAt,value
2018-01-19T00:02:02.075Z,97045.79
2018-01-19T00:04:30.647Z,97039.47
2018-01-19T00:06:59.692Z,97049.64
2018-01-19T00:09:27.992Z,97057.30
2018-01-19T00:11:56.294Z,97053.56
2018-01-19T00:14:25.291Z,97051.09
2018-01-19T00:16:53.718Z,97059.11
2018-01-19T00:19:22.536Z,97057.11
2018-01-19T00:21:50.893Z,97061.74
2018-01-19T00:24:20.136Z,97056.88
2018-01-19T00:26:48.495Z,97066.19
2018-01-19T00:29:16.831Z,97063.38
2018-01-19T00:31:45.136Z,97064.42
2018-01-19T00:34:13.448Z,97064.16
2018-01-19T00:36:41.924Z,97064.53
2018-01-19T00:39:10.247Z,97057.88
2018-01-19T00:41:38.580Z,97055.64
2018-01-19T00:44:07.119Z,97062.84
2018-01-19T00:46:36.128Z,97068.84
2018-01-19T00:49:04.427Z,97070.52
2018-01-19T00:51:32.779Z,97069.12
2018-01-19T00:54:01.083Z,97072.64
2018-01-19T00:56:29.384Z,97066.14
2018-01-19T00:58:57.744Z,97054.80
2018-01-19T01:01:26.807Z,97053.67
2018-01-19T01:03:55.103Z,97061.66
2018-01-19T01:06:23.440Z,97071.41
2018-01-19T01:08:51.735Z,97063.58
2018-01-19T01:11:20.038Z,97068.14
2018-01-19T01:13:48.479Z,97070.83
2018-01-19T01:16:16.789Z,97070.50
2018-01-19T01:18:45.089Z,97071.64
2018-01-19T01:21:13.855Z,97076.78
2018-01-19T01:23:42.156Z,97079.56
2018-01-19T01:26:11.840Z,97078.01
2018-01-19T01:28:40.197Z,97093.87
2018-01-19T01:31:08.491Z,97100.53
2018-01-19T01:33:36.796Z,97103.86
2018-01-19T01:36:05.148Z,97107.03
2018-01-19T01:38:33.446Z,97109.49
2018-01-19T01:41:02.568Z,97113.41
2018-01-19T01:43:30.891Z,97117.10
2018-01-19T01:45:59.187Z,97115.61
2018-01-19T01:48:27.523Z,97117.52
2018-01-19T01:50:55.859Z,97106.41
2018-01-19T01:53:25.101Z,97112.95
2018-01-19T01:55:53.391Z,97121.11
2018-01-19T01:58:21.813Z,97122.70
2018-01-19T02:00:50.125Z,97130.41
2018-01-19T02:03:18.443Z,97131.30
2018-01-19T02:08:21.584Z,97140.03
2018-01-19T02:10:49.940Z,97140.16
2018-01-19T02:13:18.270Z,97138.70
2018-01-19T02:15:46.929Z,97147.62
2018-01-19T02:18:15.346Z,97157.28
2018-01-19T02:20:43.656Z,97167.15
2018-01-19T02:23:11.955Z,97171.14
2018-01-19T02:25:40.291Z,97168.92
2018-01-19T02:28:08.591Z,97167.55
2018-01-19T02:30:36.892Z,97168.22
2018-01-19T02:33:06.293Z,97171.16
2018-01-19T02:35:34.696Z,97175.48
2018-01-19T02:38:03.020Z,97166.30
2018-01-19T02:40:31.410Z,97165.33
2018-01-19T02:43:00.485Z,97168.04
2018-01-19T02:45:28.787Z,97186.23
2018-01-19T02:47:57.719Z,97187.02
2018-01-19T02:50:26.035Z,97183.27
2018-01-19T02:52:54.340Z,97190.99
2018-01-19T02:55:22.695Z,97175.27
2018-01-19T02:57:51.004Z,97188.27
2018-01-19T03:00:19.328Z,97192.78
2018-01-19T03:02:47.687Z,97187.20
2018-01-19T03:05:15.998Z,97192.97
2018-01-19T03:07:44.291Z,97196.86
2018-01-19T03:10:12.636Z,97197.68
2018-01-19T03:12:40.939Z,97197.70
2018-01-19T03:15:09.239Z,97193.61
2018-01-19T03:17:37.590Z,97202.45
2018-01-19T03:20:05.897Z,97207.69
2018-01-19T03:22:34.967Z,97220.62
2018-01-19T03:25:03.752Z,97223.28
2018-01-19T03:27:32.047Z,97230.94
2018-01-19T03:30:00.351Z,97229.19
2018-01-19T03:32:29.000Z,97232.50
2018-01-19T03:34:57.783Z,97229.52
2018-01-19T03:37:26.084Z,97239.52
2018-01-19T03:39:55.195Z,97240.44
2018-01-19T03:42:23.501Z,97236.36
2018-01-19T03:44:51.811Z,97241.05
2018-01-19T03:47:20.169Z,97242.27
2018-01-19T03:49:48.528Z,97236.45
2018-01-19T03:52:17.596Z,97240.23
2018-01-19T03:54:46.033Z,97244.92
2018-01-19T03:57:14.636Z,97242.05
2018-01-19T03:59:43.011Z,97248.10
2018-01-19T04:02:11.452Z,97247.08
2018-01-19T04:04:39.748Z,97237.48
2018-01-19T04:07:08.056Z,97240.78
2018-01-19T04:09:37.204Z,97248.61
2018-01-19T04:12:05.516Z,97249.66
2018-01-19T04:14:33.835Z,97262.10
2018-01-19T04:17:02.211Z,97261.73
2018-01-19T04:19:30.524Z,97266.47
2018-01-19T04:21:58.844Z,97274.30
2018-01-19T04:24:27.222Z,97271.47
2018-01-19T04:26:56.295Z,97263.71
2018-01-19T04:29:25.254Z,97265.61
2018-01-19T04:31:53.641Z,97273.71
2018-01-19T04:34:22.087Z,97280.70
2018-01-19T04:36:50.556Z,97278.58
2018-01-19T04:39:19.264Z,97277.55
2018-01-19T04:41:47.591Z,97287.24
2018-01-19T04:44:15.909Z,97287.95
2018-01-19T04:46:44.251Z,97297.56
2018-01-19T04:49:12.551Z,97303.20
2018-01-19T04:51:40.851Z,97312.25
2018-01-19T04:54:09.179Z,97315.14
2018-01-19T04:56:37.487Z,97321.64
2018-01-19T04:59:06.554Z,97322.45
2018-01-19T05:01:34.910Z,97328.02
2018-01-19T05:04:03.216Z,97337.75
2018-01-19T05:06:31.506Z,97342.47
2018-01-19T05:08:59.876Z,97340.84
2018-01-19T05:11:28.939Z,97344.95
2018-01-19T05:13:57.234Z,97343.78
2018-01-19T05:16:25.571Z,97353.84
2018-01-19T05:18:54.456Z,97363.03
2018-01-19T05:21:22.755Z,97365.88
2018-01-19T05:23:51.191Z,97374.47
2018-01-19T05:26:20.256Z,97382.27
2018-01-19T05:28:49.339Z,97378.61
2018-01-19T05:31:17.692Z,97390.47
2018-01-19T05:33:45.996Z,97390.52
2018-01-19T05:36:14.299Z,97400.05
2018-01-19T05:38:42.656Z,97397.06
2018-01-19T05:41:10.965Z,97402.87
2018-01-19T05:43:40.062Z,97405.11
2018-01-19T05:46:09.183Z,97409.91
2018-01-19T05:48:37.508Z,97405.38
2018-01-19T05:51:05.834Z,97411.84
2018-01-19T05:53:34.188Z,97405.34
2018-01-19T05:56:03.472Z,97408.23
2018-01-19T05:58:32.543Z,97420.52
2018-01-19T06:01:00.924Z,97430.14
2018-01-19T06:03:29.223Z,97432.67
2018-01-19T06:05:57.523Z,97442.07
2018-01-19T06:08:25.878Z,97439.37
2018-01-19T06:10:54.179Z,97448.65
2018-01-19T06:13:23.889Z,97444.34
2018-01-19T06:15:52.215Z,97444.12
2018-01-19T06:18:20.520Z,97459.41
2018-01-19T06:20:48.828Z,97460.77
2018-01-19T06:23:17.175Z,97472.13
2018-01-19T06:25:45.475Z,97482.67
2018-01-19T06:28:14.539Z,97484.25
2018-01-19T06:30:43.398Z,97487.44
2018-01-19T06:33:12.582Z,97491.09
2018-01-19T06:35:41.536Z,97494.08
2018-01-19T06:38:10.339Z,97501.06
2018-01-19T06:40:38.754Z,97502.52
2018-01-19T06:43:07.055Z,97506.04
2018-01-19T06:45:35.359Z,97505.70
2018-01-19T06:48:03.988Z,97519.59
2018-01-19T06:50:32.295Z,97523.56
2018-01-19T06:53:01.024Z,97529.16
2018-01-19T06:55:29.640Z,97516.69
2018-01-19T06:57:58.007Z,97526.96
2018-01-19T07:00:26.308Z,97524.87
2018-01-19T07:02:54.665Z,97533.03
2018-01-19T07:05:22.972Z,97544.71
2018-01-19T07:07:51.276Z,97547.75
2018-01-19T07:10:20.312Z,97555.95
2018-01-19T07:12:48.664Z,97560.46
2018-01-19T07:15:17.728Z,97581.89
2018-01-19T07:17:46.365Z,97573.09
2018-01-19T07:20:20.332Z,97592.17
2018-01-19T07:22:50.552Z,97598.14
2018-01-19T07:25:19.972Z,97601.28
2018-01-19T07:27:49.752Z,97599.50
2018-01-19T07:30:18.323Z,97611.06
2018-01-19T07:32:48.747Z,97616.48
2018-01-19T07:35:19.824Z,97618.13
2018-01-19T07:37:51.564Z,97620.12
2018-01-19T07:40:26.852Z,97623.64
2018-01-19T07:43:03.287Z,97631.95
2018-01-19T07:45:34.165Z,97638.28
2018-01-19T07:48:04.952Z,97643.11
2018-01-19T07:50:37.222Z,97641.64
2018-01-19T07:53:05.923Z,97650.78
2018-01-19T07:55:34.361Z,97657.59
2018-01-19T07:58:06.315Z,97660.55
2018-01-19T08:00:37.245Z,97664.74
2018-01-19T08:03:08.619Z,97667.70
2018-01-19T08:05:37.072Z,97674.20
2018-01-19T08:08:06.553Z,97685.92
2018-01-19T08:10:35.031Z,97692.66
2018-01-19T08:13:04.921Z,97698.03
2018-01-19T08:15:33.329Z,97702.67
2018-01-19T08:18:02.627Z,97701.97
2018-01-19T08:20:31.817Z,97706.47
2018-01-19T08:23:01.100Z,97709.69
2018-01-19T08:25:32.109Z,97711.67
2018-01-19T08:28:03.200Z,97718.16
2018-01-19T08:30:32.605Z,97718.89
2018-01-19T08:33:03.688Z,97729.61
2018-01-19T08:35:32.200Z,97730.97
2018-01-19T08:38:01.587Z,97732.37
2018-01-19T08:40:29.983Z,97739.33
2018-01-19T08:42:59.296Z,97742.25
2018-01-19T08:45:29.310Z,97739.67
2018-01-19T08:48:04.111Z,97740.73
2018-01-19T08:50:36.113Z,97745.01
2018-01-19T08:53:05.108Z,97745.19
2018-01-19T08:55:34.283Z,97752.66
2018-01-19T08:58:02.660Z,97756.62
2018-01-19T09:00:31.103Z,97756.30
2018-01-19T09:03:00.275Z,97759.46
2018-01-19T09:05:33.038Z,97758.38
2018-01-19T09:08:03.693Z,97754.45
2018-01-19T09:10:33.148Z,97761.84
2018-01-19T09:13:04.124Z,97763.42
2018-01-19T09:15:36.222Z,97764.86
2018-01-19T09:18:04.687Z,97768.91
2018-01-19T09:20:36.140Z,97769.22
2018-01-19T09:23:07.360Z,97772.87
2018-01-19T09:25:37.521Z,97775.59
2018-01-19T09:28:06.693Z,97777.75
2018-01-19T09:30:36.861Z,97777.84
2018-01-19T09:33:07.117Z,97774.97
2018-01-19T09:35:35.508Z,97778.67
2018-01-19T09:38:06.149Z,97786.64
2018-01-19T09:40:34.712Z,97793.11
2018-01-19T09:43:03.116Z,97792.98
2018-01-19T09:45:33.689Z,97809.82
2018-01-19T09:48:05.991Z,97815.13
2018-01-19T09:50:35.272Z,97818.52
2018-01-19T09:53:05.476Z,97824.67
2018-01-19T09:55:37.421Z,97824.44
2018-01-19T09:58:07.110Z,97831.30
2018-01-19T10:00:39.503Z,97825.93
2018-01-19T10:03:07.888Z,97828.50
2018-01-19T10:05:37.292Z,97825.75
2018-01-19T10:08:06.512Z,97827.17
2018-01-19T10:10:35.747Z,97826.07
2018-01-19T10:13:04.108Z,97834.55
2018-01-19T10:15:32.632Z,97823.39
2018-01-19T10:18:01.175Z,97821.20
2018-01-19T10:20:29.602Z,97816.54
2018-01-19T10:22:58.792Z,97812.56
2018-01-19T10:25:29.012Z,97813.27
2018-01-19T10:27:58.467Z,97802.84
2018-01-19T10:30:28.608Z,97810.37
2018-01-19T10:32:58.042Z,97806.39
2018-01-19T10:35:27.403Z,97812.27
2018-01-19T10:37:55.887Z,97804.11
2018-01-19T10:40:25.253Z,97798.42
2018-01-19T10:42:55.786Z,97803.31
2018-01-19T10:45:26.003Z,97793.02
2018-01-19T10:47:55.539Z,97800.64
2018-01-19T10:50:23.956Z,97794.78
2018-01-19T10:52:56.246Z,97797.97
2018-01-19T10:55:24.644Z,97799.64
2018-01-19T10:57:55.125Z,97791.44
2018-01-19T11:00:27.984Z,97798.34
2018-01-19T11:02:56.361Z,97794.39
2018-01-19T11:05:28.322Z,97788.28
2018-01-19T11:07:57.738Z,97789.96
2018-01-19T11:10:28.172Z,97783.50
2018-01-19T11:12:56.523Z,97791.20
2018-01-19T11:15:26.827Z,97774.89
2018-01-19T11:17:57.015Z,97790.54
2018-01-19T11:20:26.772Z,97794.62
2018-01-19T11:22:56.016Z,97788.64
2018-01-19T11:25:25.396Z,97796.91
2018-01-19T11:27:53.920Z,97791.25
2018-01-19T11:30:22.432Z,97784.27
2018-01-19T11:32:52.201Z,97784.67
2018-01-19T11:35:22.314Z,97791.84
2018-01-19T11:37:53.435Z,97777.63
2018-01-19T11:40:21.904Z,97782.11
2018-01-19T11:42:50.370Z,97773.66
2018-01-19T11:45:19.643Z,97775.13
2018-01-19T11:47:48.377Z,97783.56
2018-01-19T11:50:18.503Z,97781.39
2018-01-19T11:52:47.031Z,97779.65
2018-01-19T11:55:15.553Z,97791.02
2018-01-19T11:57:52.831Z,97789.13
2018-01-19T12:00:21.155Z,97784.58
2018-01-19T12:02:53.115Z,97788.08
2018-01-19T12:05:24.279Z,97785.45
2018-01-19T12:07:57.991Z,97789.79
2018-01-19T12:10:28.947Z,97781.67
2018-01-19T12:12:58.162Z,97773.88
2018-01-19T12:15:27.341Z,97771.91
2018-01-19T12:17:58.654Z,97774.67
2018-01-19T12:20:27.003Z,97776.75
2018-01-19T12:22:56.458Z,97771.09
2018-01-19T12:25:27.956Z,97758.23
2018-01-19T12:27:59.517Z,97761.25
2018-01-19T12:30:29.423Z,97762.20
2018-01-19T12:33:00.883Z,97756.97
2018-01-19T12:35:30.224Z,97757.63
2018-01-19T12:37:58.776Z,97746.98
2018-01-19T12:40:27.095Z,97746.70
2018-01-19T12:43:01.492Z,97750.92
2018-01-19T12:45:30.612Z,97741.53
2018-01-19T12:47:59.016Z,97737.26
2018-01-19T12:50:29.279Z,97737.16
2018-01-19T12:52:59.951Z,97732.98
2018-01-19T12:55:29.719Z,97736.06
2018-01-19T12:57:58.090Z,97728.77
2018-01-19T13:00:28.448Z,97732.32
2018-01-19T13:02:58.235Z,97730.38
2018-01-19T13:05:26.627Z,97723.84
2018-01-19T13:07:55.412Z,97717.47
2018-01-19T13:10:26.156Z,97719.27
2018-01-19T13:12:56.224Z,97712.25
2018-01-19T13:15:24.860Z,97705.92
2018-01-19T13:17:54.223Z,97714.89
2018-01-19T13:20:25.091Z,97714.84
2018-01-19T13:22:56.064Z,97715.94
2018-01-19T13:25:25.380Z,97709.88
2018-01-19T13:27:54.951Z,97703.28
2018-01-19T13:30:24.968Z,97700.77
2018-01-19T13:32:54.194Z,97692.83
2018-01-19T13:35:26.339Z,97705.47
2018-01-19T13:37:56.604Z,97698.84
2018-01-19T13:40:27.032Z,97694.19
2018-01-19T13:42:58.612Z,97696.35
2018-01-19T13:45:27.908Z,97691.84
2018-01-19T13:47:56.364Z,97691.16
2018-01-19T13:50:25.696Z,97689.87
2018-01-19T13:52:56.247Z,97689.56
2018-01-19T13:55:26.558Z,97693.73
2018-01-19T13:57:56.300Z,97690.53
2018-01-19T14:00:25.609Z,97697.31
2018-01-19T14:02:54.847Z,97692.23
2018-01-19T14:05:26.237Z,97694.70
2018-01-19T14:07:54.543Z,97704.09
2018-01-19T14:10:23.227Z,97702.53
2018-01-19T14:12:51.521Z,97708.52
2018-01-19T14:15:19.819Z,97697.28
2018-01-19T14:17:48.168Z,97703.22
2018-01-19T14:20:16.463Z,97701.64
2018-01-19T14:22:44.776Z,97705.16
2018-01-19T14:25:13.192Z,97696.98
2018-01-19T14:27:41.495Z,97705.48
2018-01-19T14:30:10.249Z,97702.92
2018-01-19T14:32:38.597Z,97707.54
2018-01-19T14:35:07.159Z,97702.47
2018-01-19T14:37:35.463Z,97706.67
2018-01-19T14:40:03.827Z,97695.27
2018-01-19T14:42:32.899Z,97693.56
2018-01-19T14:45:01.309Z,97694.00
2018-01-19T14:47:29.655Z,97703.53
2018-01-19T14:49:57.951Z,97700.03
2018-01-19T14:52:26.304Z,97700.52
2018-01-19T14:54:55.028Z,97702.03
2018-01-19T14:57:23.332Z,97711.23
2018-01-19T14:59:51.648Z,97714.81
2018-01-19T15:02:20.803Z,97712.48
2018-01-19T15:04:49.099Z,97712.56
2018-01-19T15:07:17.414Z,97713.28
2018-01-19T15:09:45.759Z,97710.81
2018-01-19T15:12:14.066Z,97707.59
2018-01-19T15:14:42.361Z,97704.77
2018-01-19T15:17:11.476Z,97709.51
2018-01-19T15:19:39.778Z,97710.13
2018-01-19T15:22:08.113Z,97712.92
2018-01-19T15:24:36.523Z,97708.26
2018-01-19T15:27:05.086Z,97703.64
2018-01-19T15:29:33.388Z,97709.95
2018-01-19T15:32:01.752Z,97711.38
2018-01-19T15:34:30.055Z,97709.80
2018-01-19T15:36:58.347Z,97714.20
2018-01-19T15:39:27.836Z,97712.24
2018-01-19T15:41:56.131Z,97715.39
2018-01-19T15:44:24.431Z,97709.02
2018-01-19T15:46:52.774Z,97715.16
2018-01-19T15:49:21.066Z,97711.12
2018-01-19T15:51:50.143Z,97713.25
2018-01-19T15:54:18.559Z,97714.13
2018-01-19T15:56:46.869Z,97723.20
2018-01-19T15:59:16.066Z,97722.40
2018-01-19T16:01:44.435Z,97722.41
2018-01-19T16:04:12.751Z,97718.45
2018-01-19T16:06:41.060Z,97712.40
2018-01-19T16:09:09.420Z,97717.81
2018-01-19T16:11:37.740Z,97729.37
2018-01-19T16:14:06.044Z,97716.56
2018-01-19T16:16:34.411Z,97728.41
2018-01-19T16:19:03.993Z,97722.47
2018-01-19T16:21:32.299Z,97716.64
2018-01-19T16:24:00.649Z,97714.76
2018-01-19T16:26:28.951Z,97715.48
2018-01-19T16:28:57.263Z,97712.45
2018-01-19T16:31:25.635Z,97711.66
2018-01-19T16:33:53.930Z,97715.83
2018-01-19T16:36:22.349Z,97715.94
2018-01-19T16:38:50.713Z,97711.42
2018-01-19T16:41:19.805Z,97712.40
2018-01-19T16:43:48.124Z,97711.58
2018-01-19T16:46:16.940Z,97713.38
2018-01-19T16:48:45.236Z,97716.53
2018-01-19T16:51:14.178Z,97709.44
2018-01-19T16:53:42.527Z,97708.75
2018-01-19T16:56:10.899Z,97718.58
2018-01-19T16:58:39.740Z,97714.17
2018-01-19T17:01:08.043Z,97716.06
2018-01-19T17:03:36.432Z,97716.99
2018-01-19T17:06:06.188Z,97717.85
2018-01-19T17:08:34.528Z,97713.03
2018-01-19T17:11:02.843Z,97715.41
2018-01-19T17:13:31.220Z,97718.70
2018-01-19T17:15:59.549Z,97708.98
2018-01-19T17:18:27.868Z,97711.33
2018-01-19T17:20:56.323Z,97708.81
2018-01-19T17:23:28.784Z,97704.45
2018-01-19T17:25:59.029Z,97711.56
2018-01-19T17:28:28.108Z,97708.61
2018-01-19T17:30:56.460Z,97715.26
2018-01-19T17:33:26.105Z,97707.64
2018-01-19T17:35:54.411Z,97709.78
2018-01-19T17:38:22.755Z,97713.69
2018-01-19T17:40:51.341Z,97711.02
2018-01-19T17:43:19.756Z,97707.47
2018-01-19T17:45:49.027Z,97706.98
2018-01-19T17:48:17.455Z,97707.95
2018-01-19T17:50:45.765Z,97712.06
2018-01-19T17:53:14.408Z,97708.16
2018-01-19T17:55:42.708Z,97704.81
2018-01-19T17:58:11.208Z,97710.91
2018-01-19T18:00:39.715Z,97712.41
2018-01-19T18:03:08.188Z,97706.94
2018-01-19T18:05:36.535Z,97710.52
2018-01-19T18:08:04.848Z,97710.36
2018-01-19T18:10:34.016Z,97708.94
2018-01-19T18:13:02.392Z,97708.11
2018-01-19T18:15:31.047Z,97709.27
2018-01-19T18:18:00.711Z,97704.55
2018-01-19T18:20:29.015Z,97704.00
2018-01-19T18:22:58.244Z,97706.13
2018-01-19T18:25:26.684Z,97698.09
2018-01-19T18:27:55.916Z,97698.91
2018-01-19T18:30:24.340Z,97703.92
2018-01-19T18:32:53.109Z,97697.56
2018-01-19T18:35:21.396Z,97694.50
2018-01-19T18:37:50.311Z,97693.51
2018-01-19T18:40:18.740Z,97695.70
2018-01-19T18:42:47.088Z,97698.84
2018-01-19T18:45:15.408Z,97706.44
2018-01-19T18:47:44.275Z,97705.48
2018-01-19T18:50:12.587Z,97708.16
2018-01-19T18:52:40.946Z,97702.78
2018-01-19T18:55:09.953Z,97707.53
2018-01-19T18:57:38.258Z,97704.13
2018-01-19T19:00:06.640Z,97698.34
2018-01-19T19:02:35.144Z,97700.07
2018-01-19T19:05:04.231Z,97702.30
2018-01-19T19:07:33.363Z,97699.39
2018-01-19T19:10:01.934Z,97707.44
2018-01-19T19:12:30.398Z,97704.95
2018-01-19T19:14:58.725Z,97704.30
2018-01-19T19:17:27.069Z,97706.87
2018-01-19T19:19:56.000Z,97703.10
2018-01-19T19:22:24.304Z,97705.27
2018-01-19T19:24:52.612Z,97714.13
2018-01-19T19:27:21.131Z,97705.60
2018-01-19T19:29:49.440Z,97712.58
2018-01-19T19:32:17.809Z,97715.80
2018-01-19T19:34:46.160Z,97718.11
2018-01-19T19:37:14.664Z,97719.18
2018-01-19T19:39:42.968Z,97721.30
2018-01-19T19:42:11.354Z,97725.88
2018-01-19T19:44:39.762Z,97729.33
2018-01-19T19:47:08.103Z,97730.48
2018-01-19T19:49:36.479Z,97736.48
2018-01-19T19:52:05.381Z,97742.81
2018-01-19T19:54:33.754Z,97749.64
2018-01-19T19:57:02.232Z,97744.86
2018-01-19T19:59:30.595Z,97751.14
2018-01-19T20:01:59.002Z,97756.12
2018-01-19T20:04:27.317Z,97759.34
2018-01-19T20:06:55.723Z,97761.55
2018-01-19T20:09:24.167Z,97768.80
2018-01-19T20:11:52.544Z,97773.14
2018-01-19T20:14:21.007Z,97771.33
2018-01-19T20:16:49.510Z,97774.19
2018-01-19T20:19:17.857Z,97787.23
2018-01-19T20:21:46.223Z,97781.94
2018-01-19T20:24:14.642Z,97788.92
2018-01-19T20:26:43.011Z,97786.41
2018-01-19T20:29:11.370Z,97800.50
2018-01-19T20:31:40.955Z,97794.12
2018-01-19T20:34:09.310Z,97805.15
2018-01-19T20:36:37.678Z,97798.55
2018-01-19T20:39:06.125Z,97802.23
2018-01-19T20:41:34.821Z,97796.61
2018-01-19T20:44:03.173Z,97805.41
2018-01-19T20:46:31.625Z,97808.48
2018-01-19T20:48:59.991Z,97806.30
2018-01-19T20:51:29.067Z,97808.88
2018-01-19T20:53:57.471Z,97810.31
2018-01-19T20:56:26.095Z,97817.48
2018-01-19T20:58:55.199Z,97810.91
2018-01-19T21:01:23.606Z,97812.69
2018-01-19T21:03:51.981Z,97811.34
2018-01-19T21:06:20.625Z,97811.41
2018-01-19T21:08:49.825Z,97819.59
2018-01-19T21:11:18.245Z,97827.40
2018-01-19T21:13:46.602Z,97822.40
2018-01-19T21:16:15.048Z,97817.41
2018-01-19T21:18:43.415Z,97825.20
2018-01-19T21:21:11.752Z,97824.27
2018-01-19T21:23:40.178Z,97830.63
2018-01-19T21:26:08.607Z,97824.34
2018-01-19T21:28:36.924Z,97827.84
2018-01-19T21:31:05.349Z,97828.71
2018-01-19T21:33:33.676Z,97826.20
2018-01-19T21:36:01.991Z,97828.02
2018-01-19T21:38:31.177Z,97829.33
2018-01-19T21:40:59.541Z,97825.42
2018-01-19T21:43:27.910Z,97828.52
2018-01-19T21:45:56.319Z,97832.92
2018-01-19T21:48:24.735Z,97838.42
2018-01-19T21:50:53.094Z,97838.09
2018-01-19T21:53:22.251Z,97843.86
2018-01-19T21:55:50.611Z,97846.88
2018-01-19T21:58:19.730Z,97847.89
2018-01-19T22:00:48.147Z,97848.74
2018-01-19T22:03:17.034Z,97852.23
2018-01-19T22:05:45.349Z,97853.42
2018-01-19T22:08:14.993Z,97854.96
2018-01-19T22:10:43.427Z,97860.95
2018-01-19T22:13:11.822Z,97869.79
2018-01-19T22:15:40.813Z,97868.42
2018-01-19T22:18:09.282Z,97872.83
2018-01-19T22:20:37.592Z,97866.83
2018-01-19T22:23:05.960Z,97867.41
2018-01-19T22:25:34.357Z,97870.74
2018-01-19T22:28:02.684Z,97866.22
2018-01-19T22:30:31.108Z,97871.88
2018-01-19T22:32:59.547Z,97879.57
2018-01-19T22:35:28.339Z,97882.54
2018-01-19T22:37:56.861Z,97890.93
2018-01-19T22:40:26.243Z,97890.70
2018-01-19T22:42:55.080Z,97882.45
2018-01-19T22:45:23.429Z,97883.97
2018-01-19T22:47:51.801Z,97882.83
2018-01-19T22:50:20.132Z,97882.84
2018-01-19T22:52:49.048Z,97893.14
2018-01-19T22:55:17.587Z,97896.14
2018-01-19T22:57:46.440Z,97892.47
2018-01-19T23:00:22.624Z,97896.20
2018-01-19T23:02:50.974Z,97904.03
2018-01-19T23:05:19.343Z,97906.63
2018-01-19T23:07:48.155Z,97910.27
2018-01-19T23:10:16.785Z,97911.05
2018-01-19T23:12:45.146Z,97917.09
2018-01-19T23:15:13.591Z,97915.86
2018-01-19T23:17:41.918Z,97922.06
2018-01-19T23:20:10.791Z,97917.63
2018-01-19T23:22:39.151Z,97913.06
2018-01-19T23:25:07.492Z,97918.38
2018-01-19T23:27:36.574Z,97925.16
2018-01-19T23:30:05.005Z,97926.05
2018-01-19T23:32:43.415Z,97923.55
2018-01-19T23:35:22.111Z,97926.06
2018-01-19T23:37:50.574Z,97929.50
2018-01-19T23:40:18.967Z,97933.03
2018-01-19T23:42:47.371Z,97938.23
2018-01-19T23:45:15.688Z,97938.69
2018-01-19T23:47:44.094Z,97940.44
2018-01-19T23:50:12.399Z,97940.88
2018-01-19T23:52:40.703Z,97945.00
2018-01-19T23:55:09.165Z,97941.81
2018-01-19T23:57:37.472Z,97946.73
